This demonstration page uses our WeatherBlox Daily Observations layout. Learn more.

Left ArrowRight Arrow

Hourly Observations for April 13, 2020

Temp ( °F °C ) Dew Point ( °F °C ) Humidity (%) Winds ( mph kmh ) Pressure ( in mb ) Visibility ( mi km ) Precip ( " mm )
12:51 am 00:51 Clear 55 12.8 38 3.3 53 53 S 3 6 29.87 1012 10 16.0934 0 0
1:51 am 01:51 Clear 51 10.6 37 2.8 59 59 SE 3 6 29.87 1011 10 16.0934 0 0
2:51 am 02:51 Clear 48 8.9 37 2.8 66 66 E 5 7 29.88 1012 10 16.0934 0 0
3:51 am 03:51 Clear 46 7.8 36 2.2 68 68 E 3 6 29.88 1012 10 16.0934 0 0
4:51 am 04:51 Cloudy 49 9.4 37 2.8 64 64 SE 5 7 29.89 1012 10 16.0934 0 0
5:51 am 05:51 Cloudy 49 9.4 37 2.8 64 64 SE 5 7 29.9 1013 10 16.0934 0 0
6:51 am 06:51 Mostly Cloudy 51 10.6 38 3.3 61 61 E 3 6 29.91 1013 10 16.0934 0 0
7:51 am 07:51 Sunny 59 15 39 3.9 48 48 Calm 29.91 1013 10 16.0934 0 0
8:51 am 08:51 Mostly Sunny 62 16.7 40 4.4 44 44 VRB 5 7 29.9 1013 10 16.0934 0 0
9:51 am 09:51 Sunny 66 18.9 39 3.9 37 37 WNW 8 13 29.88 1012 10 16.0934 0 0
10:51 am 10:51 Sunny 67 19.4 37 2.8 33 33 VRB 3 6 29.86 1011 10 16.0934 0 0
11:51 am 11:51 Mostly Cloudy 71 21.7 36 2.2 28 28 WNW 14 22 29.84 1011 10 16.0934 0 0
12:51 pm 12:51 Sunny 75 23.9 32 0 21 21 WNW 25 41 29.81 1010 10 16.0934 0 0
1:51 pm 13:51 Sunny 76 24.4 32 0 20 20 WNW 31 50 29.8 1009 10 16.0934 0 0
2:51 pm 14:51 Sunny 75 23.9 33 0.6 22 22 WNW 20 31 29.79 1009 10 16.0934 0 0
3:51 pm 15:51 Sunny 74 23.3 34 1.1 23 23 WNW 26 43 29.8 1009 10 16.0934 0 0
4:51 pm 16:51 Sunny 73 22.8 34 1.1 24 24 WNW 25 41 29.8 1009 10 16.0934 0 0
5:51 pm 17:51 Partly Cloudy 70 21.1 33 0.6 26 26 W 28 44 29.81 1010 10 16.0934 0 0
6:51 pm 18:51 Clear 66 18.9 40 4.4 39 39 NW 20 31 29.84 1010 10 16.0934 0 0
7:51 pm 19:51 Clear 64 17.8 42 5.6 45 45 WNW 20 31 29.86 1011 10 16.0934 0 0
8:51 pm 20:51 Mostly Clear 63 17.2 42 5.6 47 47 NW 16 26 29.9 1013 10 16.0934 0 0
9:51 pm 21:51 Clear 61 16.1 40 4.4 46 46 NNW 13 20 29.94 1014 10 16.0934 0 0
10:51 pm 22:51 Partly Cloudy 57 13.9 41 5 55 55 W 10 17 29.97 1015 10 16.0934 0 0
11:51 pm 23:51 Cloudy 56 13.3 43 6.1 62 62 NW 6 9 29.97 1015 10 16.0934 0.001 0.001

Powered by AerisWeather